Time;durP1;ratioP1;P1;durP2;ratioP2;P2;SDS_P1;SDS_P2;PMS_P1;PMS_P2;Temp;Humidity;BMP_temperature;BMP_pressure;BME280_temperature;BME280_humidity;BME280_pressure;Samples;Min_cycle;Max_cycle;Signal;HPM_P1;HPM_P2
2023/01/11 00:01:21;;;;;;;3.47;1.10;;;8.30;99.90;;;;;;5054125;28;20067;-44
2023/01/11 00:03:47;;;;;;;4.35;1.40;;;8.40;99.90;;;;;;5054326;28;20021;-45
2023/01/11 00:06:12;;;;;;;3.50;1.13;;;8.30;99.90;;;;;;5053832;28;20025;-43
2023/01/11 00:08:38;;;;;;;2.60;1.20;;;8.30;99.90;;;;;;5053768;28;20406;-40
2023/01/11 00:11:09;;;;;;;3.28;1.17;;;8.30;99.90;;;;;;5053874;28;20069;-43
2023/01/11 00:13:35;;;;;;;5.15;1.40;;;8.30;99.90;;;;;;5054057;28;20420;-42
2023/01/11 00:16:10;;;;;;;3.75;1.00;;;8.30;99.90;;;;;;5053488;28;20071;-43
2023/01/11 00:18:36;;;;;;;2.53;0.90;;;8.30;99.90;;;;;;5053960;28;20029;-43
2023/01/11 00:21:06;;;;;;;2.22;1.00;;;8.30;99.90;;;;;;5053603;28;20028;-41
2023/01/11 00:23:35;;;;;;;3.35;0.98;;;8.30;99.90;;;;;;5053711;28;20044;-44
2023/01/11 00:26:10;;;;;;;6.50;1.30;;;8.30;99.90;;;;;;5053434;28;20094;-43
2023/01/11 00:28:35;;;;;;;2.95;1.13;;;8.30;99.90;;;;;;5053071;28;20029;-45
2023/01/11 00:31:01;;;;;;;2.28;1.00;;;8.30;99.90;;;;;;5053456;28;20029;-42
2023/01/11 00:33:27;;;;;;;4.50;1.00;;;8.30;99.90;;;;;;5054142;28;20098;-44
2023/01/11 00:35:53;;;;;;;4.10;1.10;;;8.30;99.90;;;;;;5053299;28;20086;-45
2023/01/11 00:49:18;;;;;;;2.70;1.00;;;8.30;99.90;;;;;;5053446;28;20043;-42
2023/01/11 00:51:44;;;;;;;2.65;1.02;;;8.30;99.90;;;;;;5053171;28;20033;-45
2023/01/11 00:54:10;;;;;;;3.63;0.95;;;8.30;99.90;;;;;;5053712;28;20021;-41
2023/01/11 00:56:35;;;;;;;1.52;0.60;;;8.30;99.90;;;;;;5052645;28;20521;-43
2023/01/11 00:59:02;;;;;;;3.35;1.00;;;8.30;99.90;;;;;;5053000;28;20391;-42
2023/01/11 01:01:27;;;;;;;3.05;0.85;;;8.30;99.90;;;;;;5053064;28;20029;-45
2023/01/11 01:03:53;;;;;;;1.92;0.88;;;8.30;99.90;;;;;;5053016;28;20095;-43
2023/01/11 01:06:18;;;;;;;1.88;0.90;;;8.30;99.90;;;;;;5052694;28;20075;-43
2023/01/11 01:08:44;;;;;;;3.00;1.27;;;8.30;99.90;;;;;;5052760;28;20029;-41
2023/01/11 01:11:10;;;;;;;2.88;1.33;;;8.30;99.90;;;;;;5052660;28;20029;-45
2023/01/11 01:16:20;;;;;;;4.38;0.90;;;8.30;99.90;;;;;;5053087;28;20498;-42
2023/01/11 01:18:46;;;;;;;2.40;1.08;;;8.30;99.90;;;;;;5052681;28;20029;-41
2023/01/11 01:21:11;;;;;;;4.65;0.98;;;8.30;99.90;;;;;;5052612;28;20021;-44
2023/01/11 01:23:37;;;;;;;1.45;0.68;;;8.30;99.90;;;;;;5052424;28;20055;-43
2023/01/11 01:26:04;;;;;;;2.42;1.20;;;8.30;99.90;;;;;;5052280;28;20029;-42
2023/01/11 01:28:29;;;;;;;2.95;0.90;;;8.30;99.90;;;;;;5051238;28;20473;-41
2023/01/11 01:30:55;;;;;;;2.72;1.10;;;8.20;99.90;;;;;;5052341;28;20032;-42
2023/01/11 01:33:22;;;;;;;2.63;1.08;;;8.30;99.90;;;;;;5052363;28;20033;-44
2023/01/11 01:35:47;;;;;;;3.17;1.13;;;8.30;99.90;;;;;;5052142;28;20025;-42
2023/01/11 01:38:13;;;;;;;6.03;1.17;;;8.30;99.90;;;;;;5053023;28;20032;-45
2023/01/11 01:40:43;;;;;;;1.48;0.70;;;8.30;99.90;;;;;;5051495;28;20059;-41
2023/01/11 01:43:15;;;;;;;2.42;1.10;;;8.30;99.90;;;;;;5052718;28;20367;-41
2023/01/11 01:45:42;;;;;;;3.17;0.90;;;8.30;99.90;;;;;;5052310;28;20379;-45
2023/01/11 01:48:21;;;;;;;2.00;0.60;;;8.30;99.90;;;;;;5051971;28;20024;-44
2023/01/11 01:50:55;;;;;;;3.55;1.10;;;8.30;99.90;;;;;;5051943;28;20017;-45
2023/01/11 01:53:27;;;;;;;2.93;0.87;;;8.30;99.90;;;;;;5052517;28;20475;-42
2023/01/11 01:55:57;;;;;;;2.88;1.10;;;8.30;99.90;;;;;;5051672;28;20264;-43
2023/01/11 01:58:29;;;;;;;1.60;0.85;;;8.30;99.90;;;;;;5051820;28;20120;-41
2023/01/11 02:00:55;;;;;;;1.35;0.70;;;8.30;99.90;;;;;;5053285;28;20048;-42
2023/01/11 02:03:25;;;;;;;1.73;0.70;;;8.30;99.90;;;;;;5052013;28;20491;-45
2023/01/11 02:05:52;;;;;;;2.08;0.77;;;8.30;99.90;;;;;;5052272;28;20490;-43
2023/01/11 02:08:35;;;;;;;1.80;0.80;;;8.30;99.90;;;;;;5051659;28;20036;-45
2023/01/11 02:11:03;;;;;;;1.65;0.73;;;8.30;99.90;;;;;;5051592;28;20544;-45
2023/01/11 02:13:29;;;;;;;2.55;0.73;;;8.30;99.90;;;;;;5051499;28;20021;-45
2023/01/11 02:16:08;;;;;;;2.10;0.77;;;8.30;99.90;;;;;;5051382;28;20028;-41
2023/01/11 02:18:35;;;;;;;3.03;1.00;;;8.30;99.90;;;;;;5051507;28;20025;-44
2023/01/11 02:21:06;;;;;;;1.65;1.00;;;8.30;99.90;;;;;;5050219;28;20029;-45
2023/01/11 02:23:50;;;;;;;3.40;0.90;;;8.30;99.90;;;;;;5051536;28;20540;-45
2023/01/11 02:26:40;;;;;;;5.38;0.90;;;8.30;99.90;;;;;;5051139;28;20108;-40
2023/01/11 02:29:12;;;;;;;1.48;0.85;;;8.30;99.90;;;;;;5051676;28;20150;-41
2023/01/11 02:31:42;;;;;;;2.22;0.88;;;8.30;99.90;;;;;;5052166;28;20112;-42
2023/01/11 02:34:20;;;;;;;4.53;1.20;;;8.30;99.90;;;;;;5051607;28;20044;-44
2023/01/11 02:37:04;;;;;;;1.77;0.80;;;8.30;99.90;;;;;;5051202;28;20463;-41
2023/01/11 02:39:41;;;;;;;2.42;0.82;;;8.20;99.90;;;;;;5051245;28;20070;-41
2023/01/11 02:45:30;;;;;;;2.67;0.85;;;8.20;99.90;;;;;;5051520;28;20036;-45
2023/01/11 02:48:00;;;;;;;4.20;0.90;;;8.20;99.90;;;;;;5051319;28;20502;-45
2023/01/11 02:50:29;;;;;;;3.17;0.98;;;8.20;99.90;;;;;;5051276;28;20033;-44
2023/01/11 02:53:02;;;;;;;4.38;0.93;;;8.30;99.90;;;;;;5051866;28;20108;-44
2023/01/11 02:55:40;;;;;;;2.00;0.82;;;8.30;99.90;;;;;;5050258;28;20029;-42
2023/01/11 02:58:10;;;;;;;2.58;0.80;;;8.30;99.90;;;;;;5050954;28;20392;-45
2023/01/11 03:00:42;;;;;;;1.73;0.57;;;8.30;99.90;;;;;;5051186;28;20086;-44
2023/01/11 03:03:15;;;;;;;3.58;0.90;;;8.30;99.90;;;;;;5051329;28;20024;-45
2023/01/11 03:05:55;;;;;;;3.15;0.80;;;8.30;99.90;;;;;;5050996;28;20020;-44
2023/01/11 03:08:59;;;;;;;2.70;1.00;;;8.30;99.90;;;;;;5051272;28;20029;-44
2023/01/11 03:14:45;;;;;;;7.00;1.10;;;8.30;99.90;;;;;;5050931;28;20035;-40
2023/01/11 03:17:34;;;;;;;1.00;0.75;;;8.30;99.90;;;;;;5050787;28;20029;-44
2023/01/11 03:20:20;;;;;;;1.42;0.70;;;8.30;99.90;;;;;;5051137;28;20417;-43
2023/01/11 03:23:30;;;;;;;3.17;0.68;;;8.30;99.90;;;;;;5050858;28;20490;-45
2023/01/11 03:26:21;;;;;;;3.03;0.70;;;8.30;99.90;;;;;;5050665;28;20033;-44
2023/01/11 03:29:03;;;;;;;4.05;0.90;;;8.30;99.90;;;;;;5051828;28;20821;-40
2023/01/11 03:31:34;;;;;;;1.95;0.68;;;8.30;99.90;;;;;;5051648;28;20376;-42
2023/01/11 03:34:07;;;;;;;1.15;0.60;;;8.30;99.90;;;;;;5050784;28;20452;-41
2023/01/11 03:36:34;;;;;;;1.55;0.77;;;8.30;99.90;;;;;;5051250;28;20368;-43
2023/01/11 03:39:11;;;;;;;1.33;0.80;;;8.30;99.90;;;;;;5050748;28;20021;-45
2023/01/11 03:41:40;;;;;;;2.10;0.60;;;8.30;99.90;;;;;;5050711;28;20047;-43
2023/01/11 03:44:09;;;;;;;1.05;0.60;;;8.30;99.90;;;;;;5049322;28;20112;-42
2023/01/11 03:46:45;;;;;;;2.58;0.65;;;8.30;99.90;;;;;;5050531;28;20517;-45
2023/01/11 03:49:20;;;;;;;1.98;0.68;;;8.30;99.90;;;;;;5050715;28;20545;-42
2023/01/11 03:51:46;;;;;;;;;;;8.30;99.90;;;;;;5051034;28;20025;-42
2023/01/11 03:54:19;;;;;;;2.15;0.63;;;8.30;99.90;;;;;;5050794;28;19958;-42
2023/01/11 03:57:18;;;;;;;0.60;0.50;;;8.30;99.90;;;;;;5050432;28;20558;-44
2023/01/11 03:59:44;;;;;;;4.20;0.80;;;8.30;99.90;;;;;;5050413;28;20108;-41
2023/01/11 04:02:23;;;;;;;1.15;0.55;;;8.30;99.90;;;;;;5050440;28;20386;-45
2023/01/11 04:04:49;;;;;;;2.42;0.75;;;8.30;99.90;;;;;;5053230;28;20024;-44
2023/01/11 04:07:15;;;;;;;1.30;0.50;;;8.30;99.90;;;;;;5053687;28;20108;-45
2023/01/11 04:09:40;;;;;;;1.35;0.60;;;8.30;99.90;;;;;;5054055;28;20025;-45
2023/01/11 04:12:06;;;;;;;1.48;0.57;;;8.30;99.90;;;;;;5053814;28;20479;-45
2023/01/11 04:14:32;;;;;;;2.97;0.55;;;8.30;99.90;;;;;;5054357;28;20036;-43
2023/01/11 04:16:58;;;;;;;1.77;0.90;;;8.30;99.90;;;;;;5053636;28;20021;-41
2023/01/11 04:19:23;;;;;;;1.00;0.70;;;8.30;99.90;;;;;;5053730;28;20444;-44
2023/01/11 04:21:49;;;;;;;2.95;0.60;;;8.30;99.90;;;;;;5053804;28;20116;-45
2023/01/11 04:24:14;;;;;;;1.30;0.60;;;8.30;99.90;;;;;;5054033;28;20032;-40
2023/01/11 04:26:40;;;;;;;0.70;0.50;;;8.30;99.90;;;;;;5053496;28;20051;-42
2023/01/11 04:29:05;;;;;;;1.80;0.68;;;8.30;99.90;;;;;;5053474;28;20474;-45
2023/01/11 04:31:31;;;;;;;1.02;0.50;;;8.30;99.90;;;;;;5053537;28;20033;-45
2023/01/11 04:33:57;;;;;;;1.17;0.55;;;8.30;99.90;;;;;;5053560;28;20390;-43
2023/01/11 04:36:24;;;;;;;1.40;0.68;;;8.30;99.90;;;;;;5053232;28;20025;-43
2023/01/11 04:38:50;;;;;;;3.78;0.50;;;8.30;99.90;;;;;;5053431;28;20536;-45
2023/01/11 04:43:59;;;;;;;1.27;0.50;;;8.30;99.90;;;;;;5053715;28;20027;-44
2023/01/11 04:46:25;;;;;;;0.63;0.32;;;8.30;99.90;;;;;;5053229;28;20103;-41
2023/01/11 04:48:51;;;;;;;2.58;0.57;;;8.30;99.90;;;;;;5053304;28;20017;-44
2023/01/11 04:51:17;;;;;;;0.82;0.40;;;8.30;99.90;;;;;;5053129;28;20440;-42
2023/01/11 04:53:42;;;;;;;2.22;0.52;;;8.30;99.90;;;;;;5053707;28;20025;-40
2023/01/11 04:56:10;;;;;;;0.68;0.50;;;8.30;99.90;;;;;;5053360;28;20029;-42
2023/01/11 04:58:36;;;;;;;1.15;0.50;;;8.30;99.90;;;;;;5052987;28;20032;-45
2023/01/11 05:01:16;;;;;;;0.90;0.40;;;8.30;99.90;;;;;;5053496;28;20024;-44
2023/01/11 05:03:42;;;;;;;0.52;0.45;;;8.30;99.90;;;;;;5053167;28;20036;-45
2023/01/11 05:06:08;;;;;;;1.40;0.55;;;8.30;99.90;;;;;;5053196;28;20497;-44
2023/01/11 05:08:34;;;;;;;1.60;0.60;;;8.30;99.90;;;;;;5053560;28;20029;-44
2023/01/11 05:11:02;;;;;;;0.85;0.55;;;8.30;99.90;;;;;;5053196;28;20032;-45
2023/01/11 05:13:40;;;;;;;1.23;0.70;;;8.30;99.90;;;;;;5054031;28;20563;-41
2023/01/11 05:16:35;;;;;;;0.80;0.50;;;8.30;99.90;;;;;;5052090;28;20122;-42
2023/01/11 05:19:03;;;;;;;1.02;0.50;;;8.30;99.90;;;;;;5043787;28;20440;-42
2023/01/11 05:21:35;;;;;;;1.10;0.60;;;8.30;99.90;;;;;;5052606;28;20139;-44
2023/01/11 05:24:04;;;;;;;0.57;0.50;;;8.30;99.90;;;;;;5052660;28;20025;-41
2023/01/11 05:26:32;;;;;;;2.15;0.70;;;8.30;99.90;;;;;;5052441;28;20490;-45
2023/01/11 05:29:03;;;;;;;0.55;0.40;;;8.30;99.90;;;;;;5052440;28;20750;-43
2023/01/11 05:31:30;;;;;;;0.73;0.40;;;8.30;99.90;;;;;;5052621;28;20087;-45
2023/01/11 05:33:57;;;;;;;0.95;0.50;;;8.30;99.90;;;;;;5052532;28;20037;-45
2023/01/11 05:36:24;;;;;;;2.15;0.47;;;8.30;99.90;;;;;;5052128;28;20017;-43
2023/01/11 05:38:52;;;;;;;1.77;0.50;;;8.30;99.90;;;;;;5052281;28;20104;-43
2023/01/11 05:41:20;;;;;;;1.70;0.68;;;8.30;99.90;;;;;;5052310;28;20021;-41
2023/01/11 05:46:34;;;;;;;3.55;0.70;;;8.30;99.90;;;;;;5052701;28;20113;-43
2023/01/11 05:48:59;;;;;;;1.48;0.50;;;8.30;99.90;;;;;;5052126;28;20479;-42
2023/01/11 05:51:29;;;;;;;1.30;0.65;;;8.30;99.90;;;;;;5051927;28;20025;-42
2023/01/11 05:53:55;;;;;;;1.05;0.50;;;8.30;99.90;;;;;;5053217;28;20060;-43
2023/01/11 05:56:21;;;;;;;1.98;0.47;;;8.30;99.90;;;;;;5052752;28;20659;-42
2023/01/11 05:58:48;;;;;;;0.82;0.45;;;8.30;99.90;;;;;;5051899;28;20020;-41
2023/01/11 06:01:14;;;;;;;0.88;0.47;;;8.30;99.90;;;;;;5052953;28;20108;-45
2023/01/11 06:03:40;;;;;;;0.77;0.45;;;8.30;99.90;;;;;;5052201;28;20574;-43
2023/01/11 06:06:06;;;;;;;0.68;0.50;;;8.30;99.90;;;;;;5052112;28;20104;-45
2023/01/11 06:08:32;;;;;;;1.05;0.50;;;8.30;99.90;;;;;;5051787;28;20098;-45
2023/01/11 06:10:58;;;;;;;1.08;0.70;;;8.30;99.90;;;;;;5051523;28;20475;-45
2023/01/11 06:13:27;;;;;;;0.70;0.50;;;8.30;99.90;;;;;;5051716;28;20036;-43
2023/01/11 06:16:01;;;;;;;2.30;0.60;;;8.30;99.90;;;;;;5051508;28;20021;-41
2023/01/11 06:18:28;;;;;;;1.75;0.70;;;8.30;99.90;;;;;;5051533;28;20020;-44
2023/01/11 06:20:55;;;;;;;2.60;0.70;;;8.30;99.90;;;;;;5051531;28;20029;-42
2023/01/11 06:23:21;;;;;;;1.08;0.60;;;8.30;99.90;;;;;;5051571;28;20017;-43
2023/01/11 06:25:47;;;;;;;1.00;0.50;;;8.30;99.90;;;;;;5051225;28;20025;-39
2023/01/11 06:28:13;;;;;;;0.80;0.50;;;8.30;99.90;;;;;;5051093;28;20021;-45
2023/01/11 06:30:39;;;;;;;1.05;0.50;;;8.30;99.90;;;;;;5051427;28;20390;-45
2023/01/11 06:33:05;;;;;;;0.88;0.65;;;8.30;99.90;;;;;;5051400;28;20510;-40
2023/01/11 06:35:41;;;;;;;1.23;0.60;;;8.30;99.90;;;;;;5051296;28;20066;-45
2023/01/11 06:38:10;;;;;;;1.83;0.68;;;8.30;99.90;;;;;;5051134;28;20028;-45
2023/01/11 06:40:36;;;;;;;1.85;0.60;;;8.30;99.90;;;;;;5051854;28;20063;-41
2023/01/11 06:43:02;;;;;;;0.88;0.57;;;8.30;99.90;;;;;;5051857;28;20478;-42
2023/01/11 06:45:29;;;;;;;0.70;0.50;;;8.30;99.90;;;;;;5051054;28;20025;-42
2023/01/11 06:47:55;;;;;;;0.35;0.30;;;8.30;99.90;;;;;;5050860;28;20494;-42
2023/01/11 06:50:21;;;;;;;1.45;0.73;;;8.30;99.90;;;;;;5051151;28;20029;-42
2023/01/11 06:52:54;;;;;;;0.75;0.60;;;8.30;99.90;;;;;;5051096;28;20475;-45
2023/01/11 06:55:21;;;;;;;0.50;0.50;;;8.30;99.90;;;;;;5051604;28;20483;-44
2023/01/11 06:57:47;;;;;;;2.05;0.77;;;8.30;99.90;;;;;;5052011;28;20017;-44
2023/01/11 07:00:13;;;;;;;2.42;0.65;;;8.30;99.90;;;;;;5050981;28;20096;-45
2023/01/11 07:02:38;;;;;;;2.25;0.68;;;8.30;99.90;;;;;;5051255;28;20398;-43
2023/01/11 07:05:04;;;;;;;1.77;0.60;;;8.30;99.90;;;;;;5051027;28;20028;-43
2023/01/11 07:07:30;;;;;;;1.45;0.70;;;8.30;99.90;;;;;;5051716;28;20487;-44
2023/01/11 07:09:55;;;;;;;1.08;0.55;;;8.30;99.90;;;;;;5051058;28;20073;-41
2023/01/11 07:12:21;;;;;;;2.53;0.88;;;8.30;99.90;;;;;;5050933;28;20029;-41
2023/01/11 07:14:47;;;;;;;2.10;1.05;;;8.30;99.90;;;;;;5050821;28;20360;-44
2023/01/11 07:17:12;;;;;;;1.60;0.80;;;8.30;99.90;;;;;;5050628;28;20029;-43
2023/01/11 07:19:38;;;;;;;0.90;0.50;;;8.30;99.90;;;;;;5050917;28;20437;-45
2023/01/11 07:22:03;;;;;;;1.10;0.50;;;8.30;99.90;;;;;;5050936;28;20086;-40
2023/01/11 07:24:29;;;;;;;0.82;0.65;;;8.30;99.90;;;;;;5050898;28;20078;-43
2023/01/11 07:26:55;;;;;;;2.00;0.80;;;8.30;99.90;;;;;;5050666;28;20410;-44
2023/01/11 07:29:21;;;;;;;2.58;0.95;;;8.30;99.90;;;;;;5050582;28;20036;-45
2023/01/11 07:31:46;;;;;;;2.40;1.00;;;8.30;99.90;;;;;;5050739;28;20029;-43
2023/01/11 07:34:12;;;;;;;1.85;0.80;;;8.30;99.90;;;;;;5050729;28;20614;-45
2023/01/11 07:36:38;;;;;;;1.52;0.70;;;8.30;99.90;;;;;;5050606;28;20018;-42
2023/01/11 07:39:05;;;;;;;1.15;0.63;;;8.30;99.90;;;;;;5052225;28;20021;-42
2023/01/11 07:44:15;;;;;;;2.25;0.80;;;8.30;99.90;;;;;;5055020;28;20040;-43
2023/01/11 07:46:41;;;;;;;0.70;0.55;;;8.30;99.90;;;;;;5054817;28;20029;-45
2023/01/11 07:49:06;;;;;;;1.27;0.75;;;8.30;99.90;;;;;;5053277;28;20398;-44
2023/01/11 07:51:33;;;;;;;1.38;0.68;;;8.30;99.90;;;;;;5054425;28;20032;-45
2023/01/11 07:54:01;;;;;;;1.17;0.70;;;8.30;99.90;;;;;;5054850;28;20025;-41
2023/01/11 07:56:27;;;;;;;1.40;0.90;;;8.30;99.90;;;;;;5053868;28;20083;-43
2023/01/11 07:58:53;;;;;;;2.45;1.05;;;8.30;99.90;;;;;;5054116;28;20060;-43
2023/01/11 08:01:20;;;;;;;2.50;1.00;;;8.30;99.90;;;;;;5054203;28;20065;-43
2023/01/11 08:03:45;;;;;;;2.28;1.15;;;8.30;99.90;;;;;;5054076;28;20029;-43
2023/01/11 08:06:13;;;;;;;2.60;1.30;;;8.30;99.90;;;;;;5054003;28;20048;-41
2023/01/11 08:08:39;;;;;;;2.95;1.10;;;8.30;99.90;;;;;;5054513;28;20474;-42
2023/01/11 08:16:33;;;;;;;2.78;1.25;;;8.30;99.90;;;;;;5054257;28;20036;-42
2023/01/11 08:18:58;;;;;;;2.40;1.00;;;8.30;99.90;;;;;;5054747;28;20021;-43
2023/01/11 08:21:24;;;;;;;3.95;1.17;;;8.30;99.90;;;;;;5052376;28;20375;-42
2023/01/11 08:23:56;;;;;;;4.97;1.08;;;8.30;99.90;;;;;;5053804;28;20037;-43
2023/01/11 08:26:25;;;;;;;1.45;0.90;;;8.30;99.90;;;;;;5053588;28;20044;-43
2023/01/11 08:28:52;;;;;;;2.58;1.10;;;8.30;99.90;;;;;;5053584;28;20529;-42
2023/01/11 08:31:18;;;;;;;2.47;1.20;;;8.30;99.90;;;;;;5053582;28;20083;-43
2023/01/11 08:33:44;;;;;;;2.33;1.10;;;8.30;99.90;;;;;;5053601;28;20025;-43
2023/01/11 08:36:11;;;;;;;3.10;0.90;;;8.30;99.90;;;;;;5054634;28;20044;-42
2023/01/11 08:38:37;;;;;;;1.25;0.80;;;8.30;99.90;;;;;;5053457;28;20025;-42
2023/01/11 08:41:09;;;;;;;2.45;1.20;;;8.30;99.90;;;;;;5053488;28;20083;-42
2023/01/11 08:43:41;;;;;;;2.78;1.10;;;8.30;99.90;;;;;;5053459;28;20457;-43
2023/01/11 08:46:08;;;;;;;3.53;1.15;;;8.30;99.90;;;;;;5053061;28;20482;-42
2023/01/11 08:48:34;;;;;;;2.60;1.10;;;8.30;99.90;;;;;;5054503;28;20436;-44
2023/01/11 08:50:59;;;;;;;1.30;0.90;;;8.30;99.90;;;;;;5055055;28;20115;-43
2023/01/11 08:53:25;;;;;;;1.98;0.93;;;8.30;99.90;;;;;;5053201;28;20092;-42
2023/01/11 08:55:52;;;;;;;1.85;0.90;;;8.30;99.90;;;;;;5052894;28;20100;-44
2023/01/11 08:58:18;;;;;;;4.43;0.95;;;8.30;99.90;;;;;;5053044;28;20032;-43
2023/01/11 09:00:44;;;;;;;1.17;0.85;;;8.30;99.90;;;;;;5053046;28;20265;-43
2023/01/11 09:03:11;;;;;;;3.22;1.10;;;8.30;99.90;;;;;;5052917;28;20367;-43
2023/01/11 09:05:38;;;;;;;1.65;0.98;;;8.30;99.90;;;;;;5053132;28;20024;-43
2023/01/11 09:08:05;;;;;;;2.72;0.90;;;8.30;99.90;;;;;;5052711;28;20023;-42
2023/01/11 09:10:30;;;;;;;2.22;1.10;;;8.40;99.90;;;;;;5052826;28;20427;-43
2023/01/11 09:12:57;;;;;;;3.05;0.82;;;8.40;99.90;;;;;;5053235;28;20108;-41
2023/01/11 09:15:23;;;;;;;1.88;1.02;;;8.30;99.90;;;;;;5052902;28;20348;-43
2023/01/11 09:17:50;;;;;;;1.75;0.80;;;8.40;99.90;;;;;;5052373;28;20025;-43
2023/01/11 09:20:16;;;;;;;1.90;0.93;;;8.30;99.90;;;;;;5052703;28;20079;-43
2023/01/11 09:22:46;;;;;;;2.35;1.00;;;8.40;99.90;;;;;;5054058;28;20039;-42
2023/01/11 09:25:12;;;;;;;1.70;1.00;;;8.30;99.90;;;;;;5052664;28;20051;-43
2023/01/11 09:27:37;;;;;;;2.20;1.08;;;8.40;99.90;;;;;;5052264;28;20486;-42
2023/01/11 09:30:04;;;;;;;3.13;0.90;;;8.40;99.90;;;;;;5052430;28;20032;-43
2023/01/11 09:32:29;;;;;;;2.50;0.98;;;8.40;99.90;;;;;;5052546;28;20112;-43
2023/01/11 09:34:56;;;;;;;2.53;0.90;;;8.40;99.90;;;;;;5052427;28;20110;-43
2023/01/11 09:37:23;;;;;;;3.15;1.20;;;8.40;99.90;;;;;;5053000;28;20027;-43
2023/01/11 09:39:50;;;;;;;2.15;1.02;;;8.40;99.90;;;;;;5052798;28;20048;-43
2023/01/11 09:42:31;;;;;;;1.73;0.80;;;8.40;99.90;;;;;;5053368;28;20029;-42
2023/01/11 09:45:06;;;;;;;1.98;1.00;;;8.40;99.90;;;;;;5052152;28;20028;-44
2023/01/11 09:47:39;;;;;;;1.33;0.80;;;8.40;99.90;;;;;;5051990;28;20057;-44
2023/01/11 09:50:18;;;;;;;1.20;0.70;;;8.40;99.90;;;;;;5052204;28;20372;-43
2023/01/11 09:53:08;;;;;;;1.83;0.90;;;8.40;99.90;;;;;;5052283;28;20025;-43
2023/01/11 09:55:38;;;;;;;2.00;0.80;;;8.40;99.90;;;;;;5051934;28;20033;-44
2023/01/11 09:58:21;;;;;;;1.83;1.00;;;8.40;99.90;;;;;;5051652;28;20025;-43
2023/01/11 10:00:54;;;;;;;1.13;0.88;;;8.40;99.90;;;;;;5051584;28;20024;-43
2023/01/11 10:04:12;;;;;;;0.88;0.65;;;8.50;99.90;;;;;;5052819;28;20025;-44
2023/01/11 10:06:52;;;;;;;1.52;0.80;;;8.50;99.90;;;;;;5049586;28;20434;-44
2023/01/11 10:09:34;;;;;;;1.45;0.70;;;8.50;99.90;;;;;;5051785;28;20021;-43
2023/01/11 10:12:04;;;;;;;1.38;0.70;;;8.50;99.90;;;;;;5052226;28;20037;-44
2023/01/11 10:14:37;;;;;;;1.15;0.65;;;8.50;99.90;;;;;;5052015;28;20017;-44
2023/01/11 10:17:15;;;;;;;1.58;0.90;;;8.50;99.90;;;;;;5052236;28;20119;-44
2023/01/11 10:19:48;;;;;;;2.45;1.05;;;8.60;99.90;;;;;;5051652;28;20060;-44
2023/01/11 10:22:22;;;;;;;1.38;0.60;;;8.60;99.90;;;;;;5051733;28;20025;-44
2023/01/11 10:24:57;;;;;;;1.27;0.75;;;8.60;99.90;;;;;;5051583;28;20028;-43
2023/01/11 10:27:39;;;;;;;1.35;0.80;;;8.60;99.90;;;;;;5051435;28;20036;-44
2023/01/11 10:30:40;;;;;;;1.15;0.70;;;8.60;99.90;;;;;;5052237;28;20507;-41
2023/01/11 10:42:02;;;;;;;1.15;0.63;;;8.60;99.90;;;;;;5052081;28;20017;-43
2023/01/11 10:44:47;;;;;;;1.60;0.82;;;8.70;99.90;;;;;;5051301;28;20441;-44
2023/01/11 10:47:18;;;;;;;0.73;0.60;;;8.60;99.90;;;;;;5050834;28;20391;-44
2023/01/11 10:50:05;;;;;;;1.13;0.88;;;8.60;99.90;;;;;;5051250;28;20033;-44
2023/01/11 10:52:52;;;;;;;1.75;0.70;;;8.70;99.90;;;;;;5051114;28;20426;-44
2023/01/11 10:55:30;;;;;;;2.42;0.93;;;8.70;99.90;;;;;;5051052;28;20106;-43
2023/01/11 10:58:27;;;;;;;1.25;0.65;;;8.70;99.90;;;;;;5050873;28;20393;-43
2023/01/11 11:01:11;;;;;;;1.70;0.90;;;8.70;99.90;;;;;;5052334;28;20032;-44
2023/01/11 11:03:57;;;;;;;1.58;0.90;;;8.70;99.90;;;;;;5051857;28;20019;-42
2023/01/11 11:06:36;;;;;;;1.48;0.70;;;8.70;99.90;;;;;;5050884;28;20052;-44
2023/01/11 11:09:42;;;;;;;4.47;0.70;;;8.70;99.90;;;;;;5051026;28;20032;-44
2023/01/11 11:12:25;;;;;;;1.98;0.68;;;8.70;99.90;;;;;;5010030;28;20058;-44
2023/01/11 11:15:01;;;;;;;1.23;0.60;;;8.70;99.90;;;;;;5053287;28;20082;-43
2023/01/11 11:17:33;;;;;;;2.90;0.75;;;8.70;99.90;;;;;;5055708;28;20025;-44
2023/01/11 11:19:59;;;;;;;1.20;0.70;;;8.70;99.90;;;;;;5055638;28;20033;-44
2023/01/11 11:22:25;;;;;;;1.83;1.13;;;8.70;99.90;;;;;;5055985;28;20352;-43
2023/01/11 11:25:00;;;;;;;2.60;1.33;;;8.70;99.90;;;;;;5055130;28;20021;-44
2023/01/11 11:27:49;;;;;;;1.65;0.80;;;8.70;99.90;;;;;;5056769;28;20071;-44
2023/01/11 11:30:32;;;;;;;3.65;0.80;;;8.70;99.90;;;;;;5055997;28;20043;-44
2023/01/11 11:33:04;;;;;;;2.03;1.00;;;8.70;99.90;;;;;;5054629;28;20042;-43
2023/01/11 11:35:37;;;;;;;1.77;0.95;;;8.70;99.90;;;;;;5054756;28;20543;-43
2023/01/11 11:38:03;;;;;;;1.88;0.90;;;8.70;99.90;;;;;;5054452;28;20428;-43
2023/01/11 11:40:37;;;;;;;1.67;0.90;;;8.70;99.90;;;;;;5054601;28;20035;-43
2023/01/11 11:43:20;;;;;;;2.35;1.05;;;8.80;99.90;;;;;;5054578;28;20792;-43
2023/01/11 11:45:51;;;;;;;24.67;2.95;;;8.80;99.90;;;;;;5053943;28;20025;-44
2023/01/11 11:48:17;;;;;;;14.80;2.20;;;8.90;99.90;;;;;;5054440;28;20479;-44
2023/01/11 11:50:43;;;;;;;17.65;2.60;;;8.90;99.90;;;;;;5054631;28;20055;-44
2023/01/11 11:53:23;;;;;;;11.38;2.20;;;9.00;99.90;;;;;;5054326;28;20029;-44
2023/01/11 11:55:50;;;;;;;12.13;2.53;;;8.90;99.90;;;;;;5054421;28;20029;-44
2023/01/11 11:58:20;;;;;;;5.35;1.70;;;9.00;99.90;;;;;;5054002;28;20017;-43
2023/01/11 12:00:48;;;;;;;16.40;2.13;;;8.90;99.90;;;;;;5054224;28;20074;-45
2023/01/11 12:03:31;;;;;;;8.25;1.27;;;8.90;99.90;;;;;;5054249;28;20021;-44
2023/01/11 12:06:07;;;;;;;6.32;1.80;;;9.00;99.90;;;;;;5053175;28;20036;-45
2023/01/11 12:08:35;;;;;;;6.18;1.63;;;8.90;99.90;;;;;;5054299;28;20029;-44
2023/01/11 12:11:04;;;;;;;9.80;1.33;;;8.90;99.90;;;;;;5054382;28;20391;-44
2023/01/11 12:13:33;;;;;;;6.50;1.50;;;8.90;99.90;;;;;;5053987;28;20025;-44
2023/01/11 12:16:02;;;;;;;4.18;1.23;;;8.90;99.90;;;;;;5053747;28;20013;-45
2023/01/11 12:18:37;;;;;;;9.55;1.30;;;8.90;99.90;;;;;;5054712;28;20073;-43
2023/01/11 12:21:21;;;;;;;6.43;1.30;;;8.90;99.90;;;;;;5053998;28;20024;-45
2023/01/11 12:23:52;;;;;;;4.97;1.15;;;8.90;99.90;;;;;;5053704;28;20024;-43
2023/01/11 12:26:22;;;;;;;5.55;1.05;;;8.90;99.90;;;;;;5053167;28;20017;-45
2023/01/11 12:29:21;;;;;;;3.38;1.33;;;8.90;99.90;;;;;;5053631;28;20037;-45
2023/01/11 12:31:53;;;;;;;3.13;0.93;;;8.90;99.90;;;;;;5053777;28;20140;-43
2023/01/11 12:34:33;;;;;;;4.15;1.00;;;8.90;99.90;;;;;;5053695;28;20017;-43
2023/01/11 12:37:35;;;;;;;5.07;1.17;;;8.90;99.90;;;;;;5053729;28;20029;-44
2023/01/11 12:40:31;;;;;;;3.63;1.10;;;8.90;99.90;;;;;;5053401;28;20028;-43
2023/01/11 12:43:00;;;;;;;3.20;0.93;;;8.90;99.90;;;;;;5053477;28;20110;-44
2023/01/11 12:45:36;;;;;;;4.53;1.10;;;8.90;99.90;;;;;;5053755;28;20028;-43
2023/01/11 12:48:19;;;;;;;3.90;1.05;;;8.90;99.90;;;;;;5053977;28;20642;-43
2023/01/11 12:51:08;;;;;;;5.57;0.80;;;8.80;99.90;;;;;;5053627;28;20033;-45
2023/01/11 12:53:48;;;;;;;2.72;1.00;;;8.90;99.90;;;;;;5053277;28;20075;-43
2023/01/11 12:56:51;;;;;;;1.42;0.68;;;8.90;99.90;;;;;;5052869;28;20439;-43
2023/01/11 12:59:52;;;;;;;2.90;0.70;;;8.90;99.90;;;;;;5049871;28;20037;-44
2023/01/11 13:02:39;;;;;;;3.30;0.82;;;8.90;99.90;;;;;;5053416;28;20096;-43
2023/01/11 13:05:22;;;;;;;2.67;0.90;;;8.90;99.90;;;;;;5052971;28;20483;-43
2023/01/11 13:08:03;;;;;;;4.15;0.90;;;8.90;99.90;;;;;;5053411;28;20550;-44
2023/01/11 13:11:03;;;;;;;0.95;0.70;;;8.90;99.90;;;;;;5053028;28;20032;-44
2023/01/11 13:13:45;;;;;;;3.38;1.10;;;8.90;99.90;;;;;;5053135;28;20475;-43
2023/01/11 13:16:23;;;;;;;3.03;0.90;;;8.90;99.90;;;;;;5053721;28;20356;-44
2023/01/11 13:18:58;;;;;;;2.67;0.80;;;8.90;99.90;;;;;;5053218;28;20045;-43
2023/01/11 13:21:29;;;;;;;7.50;0.80;;;8.90;99.90;;;;;;5053041;28;20036;-45
2023/01/11 13:24:01;;;;;;;3.58;0.90;;;8.90;99.90;;;;;;5052632;28;20040;-44
2023/01/11 13:26:47;;;;;;;3.10;0.90;;;8.90;99.90;;;;;;5052908;28;20028;-43
2023/01/11 13:29:22;;;;;;;2.60;0.90;;;8.90;99.90;;;;;;5053015;28;20501;-43
2023/01/11 13:31:49;;;;;;;1.60;0.80;;;8.80;99.90;;;;;;5052632;28;20266;-44
2023/01/11 13:34:46;;;;;;;1.63;0.68;;;8.90;99.90;;;;;;5053094;28;20052;-43
2023/01/11 13:37:24;;;;;;;2.38;0.82;;;8.80;99.90;;;;;;5028029;28;20037;-44
2023/01/11 13:39:56;;;;;;;2.40;0.70;;;8.90;99.90;;;;;;5052384;28;20048;-43
2023/01/11 13:42:40;;;;;;;1.42;0.60;;;8.90;99.90;;;;;;5052264;28;20039;-44
2023/01/11 13:45:26;;;;;;;2.03;0.70;;;8.90;99.90;;;;;;5052231;28;20025;-45
2023/01/11 13:48:06;;;;;;;1.58;0.77;;;8.90;99.90;;;;;;5052069;28;20364;-43
2023/01/11 13:50:52;;;;;;;2.10;0.68;;;8.80;99.90;;;;;;5052528;28;20482;-45
2023/01/11 13:53:30;;;;;;;1.45;0.82;;;8.80;99.90;;;;;;5051757;28;20553;-43
2023/01/11 13:56:05;;;;;;;1.45;0.80;;;8.90;99.90;;;;;;5051799;28;20043;-41
2023/01/11 13:58:52;;;;;;;1.67;0.70;;;8.90;99.90;;;;;;5109150;27;20373;-34
2023/01/11 14:01:29;;;;;;;1.10;0.60;;;8.90;99.90;;;;;;5109399;28;20062;-35
2023/01/11 14:04:03;;;;;;;1.80;0.75;;;8.90;99.90;;;;;;5109917;28;20041;-35
2023/01/11 14:06:31;;;;;;;1.88;1.02;;;8.90;99.90;;;;;;5109455;28;20024;-34